sensor_id;sensor_type;location;lat;lon;timestamp;pressure;altitude;pressure_sealevel;temperature;humidity
58947;BME280;44724;52.332;4.978;2022-07-30T00:01:48;101926.22;;;16.19;100.00
58947;BME280;44724;52.332;4.978;2022-07-30T00:04:14;101924.56;;;16.18;100.00
58947;BME280;44724;52.332;4.978;2022-07-30T00:06:39;101924.84;;;16.16;100.00
58947;BME280;44724;52.332;4.978;2022-07-30T00:09:04;101923.81;;;16.12;100.00
58947;BME280;44724;52.332;4.978;2022-07-30T00:11:30;101916.88;;;16.10;100.00
58947;BME280;44724;52.332;4.978;2022-07-30T00:13:55;101921.31;;;16.11;100.00
58947;BME280;44724;52.332;4.978;2022-07-30T00:16:21;101915.72;;;16.11;100.00
58947;BME280;44724;52.332;4.978;2022-07-30T00:18:46;101906.53;;;16.10;100.00
58947;BME280;44724;52.332;4.978;2022-07-30T00:21:12;101907.88;;;16.13;100.00
58947;BME280;44724;52.332;4.978;2022-07-30T00:23:37;101897.34;;;16.10;100.00
58947;BME280;44724;52.332;4.978;2022-07-30T00:26:02;101901.53;;;16.07;100.00
58947;BME280;44724;52.332;4.978;2022-07-30T00:28:28;101904.09;;;16.04;100.00
58947;BME280;44724;52.332;4.978;2022-07-30T00:30:54;101899.97;;;16.01;100.00
58947;BME280;44724;52.332;4.978;2022-07-30T00:33:19;101901.38;;;15.99;100.00
58947;BME280;44724;52.332;4.978;2022-07-30T00:35:44;101902.81;;;15.96;100.00
58947;BME280;44724;52.332;4.978;2022-07-30T00:38:10;101901.44;;;15.93;100.00
58947;BME280;44724;52.332;4.978;2022-07-30T00:40:35;101894.53;;;15.91;100.00
58947;BME280;44724;52.332;4.978;2022-07-30T00:43:01;101891.19;;;15.89;100.00
58947;BME280;44724;52.332;4.978;2022-07-30T00:45:27;101894.81;;;15.89;100.00
58947;BME280;44724;52.332;4.978;2022-07-30T00:47:52;101900.69;;;15.88;100.00
58947;BME280;44724;52.332;4.978;2022-07-30T00:50:18;101891.25;;;15.84;100.00
58947;BME280;44724;52.332;4.978;2022-07-30T00:52:43;101893.53;;;15.82;100.00
58947;BME280;44724;52.332;4.978;2022-07-30T00:55:12;101895.50;;;15.81;100.00
58947;BME280;44724;52.332;4.978;2022-07-30T00:57:38;101895.81;;;15.80;100.00
58947;BME280;44724;52.332;4.978;2022-07-30T01:00:06;101891.94;;;15.75;100.00
58947;BME280;44724;52.332;4.978;2022-07-30T01:02:33;101883.81;;;15.74;100.00
58947;BME280;44724;52.332;4.978;2022-07-30T01:04:58;101886.94;;;15.72;100.00
58947;BME280;44724;52.332;4.978;2022-07-30T01:07:24;101888.63;;;15.68;100.00
58947;BME280;44724;52.332;4.978;2022-07-30T01:09:49;101881.47;;;15.62;100.00
58947;BME280;44724;52.332;4.978;2022-07-30T01:12:18;101885.09;;;15.63;100.00
58947;BME280;44724;52.332;4.978;2022-07-30T01:14:44;101891.25;;;15.59;100.00
58947;BME280;44724;52.332;4.978;2022-07-30T01:17:10;101892.16;;;15.55;100.00
58947;BME280;44724;52.332;4.978;2022-07-30T01:19:38;101895.50;;;15.57;100.00
58947;BME280;44724;52.332;4.978;2022-07-30T01:27:37;101887.19;;;15.52;100.00
58947;BME280;44724;52.332;4.978;2022-07-30T01:30:05;101898.38;;;15.47;100.00
58947;BME280;44724;52.332;4.978;2022-07-30T01:32:33;101896.75;;;15.46;100.00
58947;BME280;44724;52.332;4.978;2022-07-30T01:35:01;101893.41;;;15.44;100.00
58947;BME280;44724;52.332;4.978;2022-07-30T01:37:28;101894.53;;;15.43;100.00
58947;BME280;44724;52.332;4.978;2022-07-30T01:39:55;101894.53;;;15.43;100.00
58947;BME280;44724;52.332;4.978;2022-07-30T01:42:22;101898.22;;;15.38;100.00
58947;BME280;44724;52.332;4.978;2022-07-30T01:44:49;101899.66;;;15.35;100.00
58947;BME280;44724;52.332;4.978;2022-07-30T01:47:16;101895.47;;;15.33;100.00
58947;BME280;44724;52.332;4.978;2022-07-30T01:49:47;101894.66;;;15.32;100.00
58947;BME280;44724;52.332;4.978;2022-07-30T01:52:16;101893.31;;;15.30;100.00
58947;BME280;44724;52.332;4.978;2022-07-30T01:54:43;101891.91;;;15.27;100.00
58947;BME280;44724;52.332;4.978;2022-07-30T01:57:10;101893.06;;;15.26;100.00
58947;BME280;44724;52.332;4.978;2022-07-30T01:59:38;101889.19;;;15.22;100.00
58947;BME280;44724;52.332;4.978;2022-07-30T02:02:04;101883.38;;;15.18;100.00
58947;BME280;44724;52.332;4.978;2022-07-30T02:04:31;101891.50;;;15.15;100.00
58947;BME280;44724;52.332;4.978;2022-07-30T02:07:05;101900.47;;;15.12;100.00
58947;BME280;44724;52.332;4.978;2022-07-30T02:09:36;101897.41;;;15.08;100.00
58947;BME280;44724;52.332;4.978;2022-07-30T02:12:10;101891.31;;;15.06;100.00
58947;BME280;44724;52.332;4.978;2022-07-30T02:17:50;101895.00;;;15.01;100.00
58947;BME280;44724;52.332;4.978;2022-07-30T02:20:19;101898.88;;;15.00;100.00
58947;BME280;44724;52.332;4.978;2022-07-30T02:22:47;101903.34;;;15.01;100.00
58947;BME280;44724;52.332;4.978;2022-07-30T02:25:17;101902.25;;;14.97;100.00
58947;BME280;44724;52.332;4.978;2022-07-30T02:27:45;101905.66;;;14.94;100.00
58947;BME280;44724;52.332;4.978;2022-07-30T02:30:12;101905.69;;;14.89;100.00
58947;BME280;44724;52.332;4.978;2022-07-30T02:32:41;101902.91;;;14.89;100.00
58947;BME280;44724;52.332;4.978;2022-07-30T02:35:16;101900.41;;;14.88;100.00
58947;BME280;44724;52.332;4.978;2022-07-30T02:37:44;101907.94;;;14.87;100.00
58947;BME280;44724;52.332;4.978;2022-07-30T02:40:16;101902.97;;;14.84;100.00
58947;BME280;44724;52.332;4.978;2022-07-30T02:42:45;101897.38;;;14.84;100.00
58947;BME280;44724;52.332;4.978;2022-07-30T02:45:15;101908.00;;;14.82;100.00
58947;BME280;44724;52.332;4.978;2022-07-30T02:47:49;101907.22;;;14.76;100.00
58947;BME280;44724;52.332;4.978;2022-07-30T02:50:16;101904.72;;;14.75;100.00
58947;BME280;44724;52.332;4.978;2022-07-30T02:52:43;101898.63;;;14.73;100.00
58947;BME280;44724;52.332;4.978;2022-07-30T02:55:11;101893.03;;;14.73;100.00
58947;BME280;44724;52.332;4.978;2022-07-30T02:57:40;101899.72;;;14.72;100.00
58947;BME280;44724;52.332;4.978;2022-07-30T03:00:07;101901.97;;;14.70;100.00
58947;BME280;44724;52.332;4.978;2022-07-30T03:02:34;101899.19;;;14.70;100.00
58947;BME280;44724;52.332;4.978;2022-07-30T03:05:03;101896.94;;;14.72;100.00
58947;BME280;44724;52.332;4.978;2022-07-30T03:07:31;101899.44;;;14.73;100.00
58947;BME280;44724;52.332;4.978;2022-07-30T03:09:56;101904.75;;;14.70;100.00
58947;BME280;44724;52.332;4.978;2022-07-30T03:12:24;101903.09;;;14.69;100.00
58947;BME280;44724;52.332;4.978;2022-07-30T03:14:50;101887.78;;;14.66;100.00
58947;BME280;44724;52.332;4.978;2022-07-30T03:17:17;101896.44;;;14.64;100.00
58947;BME280;44724;52.332;4.978;2022-07-30T03:19:44;101887.00;;;14.60;100.00
58947;BME280;44724;52.332;4.978;2022-07-30T03:22:11;101885.34;;;14.59;100.00
58947;BME280;44724;52.332;4.978;2022-07-30T03:24:39;101893.69;;;14.54;100.00
58947;BME280;44724;52.332;4.978;2022-07-30T03:27:08;101892.34;;;14.52;100.00
58947;BME280;44724;52.332;4.978;2022-07-30T03:29:34;101891.50;;;14.51;100.00
58947;BME280;44724;52.332;4.978;2022-07-30T03:32:03;101896.53;;;14.49;100.00
58947;BME280;44724;52.332;4.978;2022-07-30T03:34:31;101889.88;;;14.45;100.00
58947;BME280;44724;52.332;4.978;2022-07-30T03:36:57;101891.59;;;14.41;100.00
58947;BME280;44724;52.332;4.978;2022-07-30T03:39:23;101897.72;;;14.38;100.00
58947;BME280;44724;52.332;4.978;2022-07-30T03:41:49;101902.22;;;14.34;100.00
58947;BME280;44724;52.332;4.978;2022-07-30T03:44:15;101908.91;;;14.33;100.00
58947;BME280;44724;52.332;4.978;2022-07-30T03:46:41;101912.22;;;14.35;100.00
58947;BME280;44724;52.332;4.978;2022-07-30T03:49:09;101918.94;;;14.34;100.00
58947;BME280;44724;52.332;4.978;2022-07-30T03:51:35;101923.66;;;14.33;100.00
58947;BME280;44724;52.332;4.978;2022-07-30T03:54:02;101916.69;;;14.36;100.00
58947;BME280;44724;52.332;4.978;2022-07-30T03:56:48;101918.03;;;14.38;100.00
58947;BME280;44724;52.332;4.978;2022-07-30T03:59:27;101923.03;;;14.41;100.00
58947;BME280;44724;52.332;4.978;2022-07-30T04:01:52;101932.19;;;14.47;100.00
58947;BME280;44724;52.332;4.978;2022-07-30T04:04:41;101919.34;;;14.51;100.00
58947;BME280;44724;52.332;4.978;2022-07-30T04:07:07;101926.00;;;14.55;100.00
58947;BME280;44724;52.332;4.978;2022-07-30T04:09:33;101918.19;;;14.57;100.00
58947;BME280;44724;52.332;4.978;2022-07-30T04:12:10;101919.28;;;14.61;100.00
58947;BME280;44724;52.332;4.978;2022-07-30T04:14:40;101924.28;;;14.64;100.00
58947;BME280;44724;52.332;4.978;2022-07-30T04:17:48;101923.72;;;14.68;100.00
58947;BME280;44724;52.332;4.978;2022-07-30T04:20:30;101922.59;;;14.69;100.00
58947;BME280;44724;52.332;4.978;2022-07-30T04:22:57;101924.25;;;14.70;100.00
58947;BME280;44724;52.332;4.978;2022-07-30T04:25:24;101929.81;;;14.70;100.00
58947;BME280;44724;52.332;4.978;2022-07-30T04:27:49;101938.44;;;14.73;100.00
58947;BME280;44724;52.332;4.978;2022-07-30T04:30:15;101939.78;;;14.76;100.00
58947;BME280;44724;52.332;4.978;2022-07-30T04:32:41;101940.03;;;14.79;100.00
58947;BME280;44724;52.332;4.978;2022-07-30T04:35:27;101933.91;;;14.82;100.00
58947;BME280;44724;52.332;4.978;2022-07-30T04:38:14;101937.50;;;14.83;100.00
58947;BME280;44724;52.332;4.978;2022-07-30T04:40:41;101935.50;;;14.89;100.00
58947;BME280;44724;52.332;4.978;2022-07-30T04:43:06;101935.78;;;14.92;100.00
58947;BME280;44724;52.332;4.978;2022-07-30T04:45:34;101937.97;;;14.95;100.00
58947;BME280;44724;52.332;4.978;2022-07-30T04:48:02;101930.69;;;14.99;100.00
58947;BME280;44724;52.332;4.978;2022-07-30T04:50:48;101935.66;;;15.02;100.00
58947;BME280;44724;52.332;4.978;2022-07-30T04:53:17;101933.41;;;15.05;100.00
58947;BME280;44724;52.332;4.978;2022-07-30T04:55:50;101942.34;;;15.07;100.00
58947;BME280;44724;52.332;4.978;2022-07-30T04:58:19;101945.06;;;15.12;100.00
58947;BME280;44724;52.332;4.978;2022-07-30T05:00:45;101948.88;;;15.21;100.00
58947;BME280;44724;52.332;4.978;2022-07-30T05:03:15;101945.72;;;15.28;100.00
58947;BME280;44724;52.332;4.978;2022-07-30T05:05:49;101947.09;;;15.30;100.00
58947;BME280;44724;52.332;4.978;2022-07-30T05:08:15;101952.09;;;15.33;100.00
58947;BME280;44724;52.332;4.978;2022-07-30T05:10:42;101943.13;;;15.36;100.00
58947;BME280;44724;52.332;4.978;2022-07-30T05:13:11;101947.28;;;15.39;100.00
58947;BME280;44724;52.332;4.978;2022-07-30T05:15:36;101943.38;;;15.40;100.00
58947;BME280;44724;52.332;4.978;2022-07-30T05:18:02;101954.22;;;15.42;100.00
58947;BME280;44724;52.332;4.978;2022-07-30T05:20:29;101955.91;;;15.43;100.00
58947;BME280;44724;52.332;4.978;2022-07-30T05:23:10;101965.63;;;15.45;100.00
58947;BME280;44724;52.332;4.978;2022-07-30T05:25:38;101954.72;;;15.49;100.00
58947;BME280;44724;52.332;4.978;2022-07-30T05:28:14;101955.19;;;15.56;100.00
58947;BME280;44724;52.332;4.978;2022-07-30T05:30:39;101951.69;;;15.69;100.00
58947;BME280;44724;52.332;4.978;2022-07-30T05:33:05;101960.56;;;15.76;100.00
58947;BME280;44724;52.332;4.978;2022-07-30T05:35:31;101960.22;;;15.83;100.00
58947;BME280;44724;52.332;4.978;2022-07-30T05:37:58;101973.19;;;15.93;100.00
58947;BME280;44724;52.332;4.978;2022-07-30T05:40:23;101975.56;;;16.05;100.00
58947;BME280;44724;52.332;4.978;2022-07-30T05:43:09;101975.75;;;16.13;100.00
58947;BME280;44724;52.332;4.978;2022-07-30T05:45:36;101979.50;;;16.23;100.00
58947;BME280;44724;52.332;4.978;2022-07-30T05:48:01;101979.38;;;16.33;100.00
58947;BME280;44724;52.332;4.978;2022-07-30T05:50:28;101975.28;;;16.44;100.00
58947;BME280;44724;52.332;4.978;2022-07-30T05:52:53;101981.09;;;16.48;100.00
58947;BME280;44724;52.332;4.978;2022-07-30T05:55:45;101965.41;;;16.52;100.00
58947;BME280;44724;52.332;4.978;2022-07-30T05:58:29;101972.88;;;16.57;100.00
58947;BME280;44724;52.332;4.978;2022-07-30T06:00:55;101977.88;;;16.60;100.00
58947;BME280;44724;52.332;4.978;2022-07-30T06:03:22;101979.06;;;16.72;100.00
58947;BME280;44724;52.332;4.978;2022-07-30T06:06:07;101974.09;;;16.88;100.00
58947;BME280;44724;52.332;4.978;2022-07-30T06:08:33;101969.06;;;17.04;100.00
58947;BME280;44724;52.332;4.978;2022-07-30T06:10:59;101963.94;;;17.25;100.00
58947;BME280;44724;52.332;4.978;2022-07-30T06:13:24;101961.38;;;17.43;100.00
58947;BME280;44724;52.332;4.978;2022-07-30T06:15:49;101958.78;;;17.60;100.00
58947;BME280;44724;52.332;4.978;2022-07-30T06:18:15;101953.00;;;17.71;100.00
58947;BME280;44724;52.332;4.978;2022-07-30T06:20:45;101953.22;;;17.88;100.00
58947;BME280;44724;52.332;4.978;2022-07-30T06:23:11;101944.41;;;18.09;100.00
58947;BME280;44724;52.332;4.978;2022-07-30T06:26:12;101943.91;;;18.29;100.00
58947;BME280;44724;52.332;4.978;2022-07-30T06:28:38;101943.44;;;18.50;100.00
58947;BME280;44724;52.332;4.978;2022-07-30T06:31:11;101941.00;;;18.71;100.00
58947;BME280;44724;52.332;4.978;2022-07-30T06:33:38;101941.47;;;18.87;100.00
58947;BME280;44724;52.332;4.978;2022-07-30T06:36:03;101935.25;;;18.98;100.00
58947;BME280;44724;52.332;4.978;2022-07-30T06:38:36;101937.84;;;19.17;100.00
58947;BME280;44724;52.332;4.978;2022-07-30T06:41:09;101928.63;;;19.26;100.00
58947;BME280;44724;52.332;4.978;2022-07-30T06:43:46;101928.78;;;19.21;100.00
58947;BME280;44724;52.332;4.978;2022-07-30T06:46:31;101922.50;;;19.24;100.00
58947;BME280;44724;52.332;4.978;2022-07-30T06:48:56;101928.84;;;19.29;100.00
58947;BME280;44724;52.332;4.978;2022-07-30T06:51:22;101922.75;;;19.36;100.00
58947;BME280;44724;52.332;4.978;2022-07-30T06:53:47;101923.91;;;19.35;100.00
58947;BME280;44724;52.332;4.978;2022-07-30T06:56:13;101924.75;;;19.44;100.00
58947;BME280;44724;52.332;4.978;2022-07-30T06:58:45;101927.75;;;19.48;100.00
58947;BME280;44724;52.332;4.978;2022-07-30T07:01:43;101927.75;;;19.48;100.00
58947;BME280;44724;52.332;4.978;2022-07-30T07:04:09;101926.47;;;19.63;100.00
58947;BME280;44724;52.332;4.978;2022-07-30T07:06:37;101925.34;;;19.64;100.00
58947;BME280;44724;52.332;4.978;2022-07-30T07:09:03;101928.69;;;19.74;100.00
58947;BME280;44724;52.332;4.978;2022-07-30T07:11:36;101916.50;;;19.79;100.00
58947;BME280;44724;52.332;4.978;2022-07-30T07:14:06;101918.84;;;19.94;100.00
58947;BME280;44724;52.332;4.978;2022-07-30T07:16:33;101922.97;;;20.14;100.00
58947;BME280;44724;52.332;4.978;2022-07-30T07:19:11;101921.53;;;20.26;100.00
58947;BME280;44724;52.332;4.978;2022-07-30T07:21:36;101922.34;;;20.35;100.00
58947;BME280;44724;52.332;4.978;2022-07-30T07:24:03;101922.69;;;20.42;100.00
58947;BME280;44724;52.332;4.978;2022-07-30T07:26:48;101918.88;;;20.47;100.00
58947;BME280;44724;52.332;4.978;2022-07-30T07:29:14;101920.38;;;20.53;100.00
58947;BME280;44724;52.332;4.978;2022-07-30T07:31:39;101924.53;;;20.64;100.00
58947;BME280;44724;52.332;4.978;2022-07-30T07:34:05;101929.97;;;20.78;100.00
58947;BME280;44724;52.332;4.978;2022-07-30T07:36:31;101925.03;;;20.75;100.00
58947;BME280;44724;52.332;4.978;2022-07-30T07:38:57;101930.94;;;20.91;100.00
58947;BME280;44724;52.332;4.978;2022-07-30T07:41:22;101928.47;;;20.81;100.00
58947;BME280;44724;52.332;4.978;2022-07-30T07:43:48;101931.59;;;21.05;100.00
58947;BME280;44724;52.332;4.978;2022-07-30T07:46:22;101923.78;;;21.11;100.00
58947;BME280;44724;52.332;4.978;2022-07-30T07:48:47;101926.44;;;21.07;100.00
58947;BME280;44724;52.332;4.978;2022-07-30T07:51:20;101932.03;;;21.25;100.00
58947;BME280;44724;52.332;4.978;2022-07-30T07:53:46;101926.41;;;21.25;100.00
58947;BME280;44724;52.332;4.978;2022-07-30T07:56:11;101936.13;;;21.36;100.00
58947;BME280;44724;52.332;4.978;2022-07-30T07:58:39;101932.81;;;21.34;100.00
58947;BME280;44724;52.332;4.978;2022-07-30T08:01:05;101936.84;;;21.63;100.00
58947;BME280;44724;52.332;4.978;2022-07-30T08:03:49;101928.22;;;21.68;100.00
58947;BME280;44724;52.332;4.978;2022-07-30T08:06:40;101931.53;;;21.70;100.00
58947;BME280;44724;52.332;4.978;2022-07-30T08:09:28;101943.66;;;21.92;100.00
58947;BME280;44724;52.332;4.978;2022-07-30T08:12:16;101939.22;;;21.91;100.00
58947;BME280;44724;52.332;4.978;2022-07-30T08:15:00;101938.44;;;22.02;100.00
58947;BME280;44724;52.332;4.978;2022-07-30T08:17:46;101934.69;;;22.19;100.00
58947;BME280;44724;52.332;4.978;2022-07-30T08:20:18;101932.81;;;22.02;100.00
58947;BME280;44724;52.332;4.978;2022-07-30T08:22:43;101932.69;;;22.20;100.00
58947;BME280;44724;52.332;4.978;2022-07-30T08:25:09;101929.53;;;22.21;100.00
58947;BME280;44724;52.332;4.978;2022-07-30T08:27:35;101926.72;;;22.21;100.00
58947;BME280;44724;52.332;4.978;2022-07-30T08:30:05;101927.63;;;22.34;100.00
58947;BME280;44724;52.332;4.978;2022-07-30T08:32:31;101924.75;;;22.43;100.00
58947;BME280;44724;52.332;4.978;2022-07-30T08:34:58;101925.41;;;22.61;100.00
58947;BME280;44724;52.332;4.978;2022-07-30T08:37:23;101926.53;;;22.69;100.00
58947;BME280;44724;52.332;4.978;2022-07-30T08:39:48;101928.22;;;22.82;100.00
58947;BME280;44724;52.332;4.978;2022-07-30T08:42:14;101920.50;;;22.70;100.00
58947;BME280;44724;52.332;4.978;2022-07-30T08:44:43;101915.03;;;22.86;100.00
58947;BME280;44724;52.332;4.978;2022-07-30T08:47:10;101915.75;;;23.16;100.00
58947;BME280;44724;52.332;4.978;2022-07-30T08:50:06;101911.84;;;23.09;100.00
58947;BME280;44724;52.332;4.978;2022-07-30T08:52:35;101914.13;;;23.28;100.00
58947;BME280;44724;52.332;4.978;2022-07-30T08:55:03;101923.19;;;23.46;99.62
58947;BME280;44724;52.332;4.978;2022-07-30T08:57:30;101924.59;;;23.52;100.00
58947;BME280;44724;52.332;4.978;2022-07-30T09:00:00;101930.97;;;23.49;100.00
58947;BME280;44724;52.332;4.978;2022-07-30T09:02:29;101942.81;;;23.18;100.00
58947;BME280;44724;52.332;4.978;2022-07-30T09:05:02;101952.13;;;23.30;100.00
58947;BME280;44724;52.332;4.978;2022-07-30T09:07:28;101944.03;;;23.53;100.00
58947;BME280;44724;52.332;4.978;2022-07-30T09:09:55;101941.91;;;23.75;100.00
58947;BME280;44724;52.332;4.978;2022-07-30T09:12:40;101943.84;;;23.83;98.81
58947;BME280;44724;52.332;4.978;2022-07-30T09:15:11;101941.00;;;23.96;100.00
58947;BME280;44724;52.332;4.978;2022-07-30T09:20:25;101942.38;;;24.14;100.00
58947;BME280;44724;52.332;4.978;2022-07-30T09:22:57;101947.34;;;24.17;97.08
58947;BME280;44724;52.332;4.978;2022-07-30T09:25:42;101948.16;;;24.18;96.86
58947;BME280;44724;52.332;4.978;2022-07-30T09:28:29;101943.94;;;24.12;96.08
58947;BME280;44724;52.332;4.978;2022-07-30T09:31:12;101949.97;;;23.85;96.11
58947;BME280;44724;52.332;4.978;2022-07-30T09:33:56;101952.44;;;23.87;95.44
58947;BME280;44724;52.332;4.978;2022-07-30T09:36:40;101950.53;;;23.91;95.63
58947;BME280;44724;52.332;4.978;2022-07-30T09:39:37;101943.13;;;23.99;95.51
58947;BME280;44724;52.332;4.978;2022-07-30T09:42:26;101934.94;;;24.34;91.02
58947;BME280;44724;52.332;4.978;2022-07-30T09:45:05;101939.09;;;24.12;89.87
58947;BME280;44724;52.332;4.978;2022-07-30T09:47:38;101937.53;;;24.27;91.83
58947;BME280;44724;52.332;4.978;2022-07-30T09:50:11;101929.53;;;24.29;88.87
58947;BME280;44724;52.332;4.978;2022-07-30T09:52:39;101926.50;;;24.50;87.67
58947;BME280;44724;52.332;4.978;2022-07-30T09:55:06;101931.53;;;24.69;86.50
58947;BME280;44724;52.332;4.978;2022-07-30T09:57:32;101923.06;;;24.57;86.52
58947;BME280;44724;52.332;4.978;2022-07-30T10:00:23;101916.50;;;24.81;80.37
58947;BME280;44724;52.332;4.978;2022-07-30T10:03:14;101919.75;;;24.67;83.41
58947;BME280;44724;52.332;4.978;2022-07-30T10:05:59;101919.78;;;24.55;82.23
58947;BME280;44724;52.332;4.978;2022-07-30T10:08:50;101923.28;;;24.64;80.33
58947;BME280;44724;52.332;4.978;2022-07-30T10:11:18;101920.09;;;24.94;79.73
58947;BME280;44724;52.332;4.978;2022-07-30T10:13:46;101924.69;;;25.14;79.59
58947;BME280;44724;52.332;4.978;2022-07-30T10:16:13;101914.38;;;25.22;80.66
58947;BME280;44724;52.332;4.978;2022-07-30T10:18:41;101925.09;;;25.45;77.55
58947;BME280;44724;52.332;4.978;2022-07-30T10:21:43;101916.69;;;25.48;79.08
58947;BME280;44724;52.332;4.978;2022-07-30T10:24:29;101920.84;;;25.22;79.45
58947;BME280;44724;52.332;4.978;2022-07-30T10:27:14;101922.81;;;25.34;80.59
58947;BME280;44724;52.332;4.978;2022-07-30T10:29:56;101924.19;;;25.25;79.87
58947;BME280;44724;52.332;4.978;2022-07-30T10:32:25;101925.59;;;25.18;81.50
58947;BME280;44724;52.332;4.978;2022-07-30T10:34:50;101930.03;;;25.32;84.03
58947;BME280;44724;52.332;4.978;2022-07-30T10:37:16;101925.91;;;25.61;83.51
58947;BME280;44724;52.332;4.978;2022-07-30T10:39:53;101921.44;;;25.44;81.03
58947;BME280;44724;52.332;4.978;2022-07-30T10:45:18;101927.44;;;25.90;76.93
58947;BME280;44724;52.332;4.978;2022-07-30T10:47:48;101930.06;;;25.99;78.16
58947;BME280;44724;52.332;4.978;2022-07-30T10:50:17;101931.66;;;25.96;78.05
58947;BME280;44724;52.332;4.978;2022-07-30T10:52:51;101924.13;;;25.88;76.88
58947;BME280;44724;52.332;4.978;2022-07-30T10:55:22;101928.81;;;25.80;78.72
58947;BME280;44724;52.332;4.978;2022-07-30T10:58:08;101925.78;;;25.89;76.74
58947;BME280;44724;52.332;4.978;2022-07-30T11:03:24;101926.09;;;26.39;73.67
58947;BME280;44724;52.332;4.978;2022-07-30T11:08:42;101926.19;;;26.82;69.04
58947;BME280;44724;52.332;4.978;2022-07-30T11:13:50;101916.41;;;26.60;71.03
58947;BME280;44724;52.332;4.978;2022-07-30T11:16:16;101922.25;;;26.67;70.96
58947;BME280;44724;52.332;4.978;2022-07-30T11:21:41;101920.25;;;26.67;68.08
58947;BME280;44724;52.332;4.978;2022-07-30T11:27:40;101917.00;;;26.30;71.21
58947;BME280;44724;52.332;4.978;2022-07-30T11:35:30;101903.47;;;26.82;69.85
58947;BME280;44724;52.332;4.978;2022-07-30T11:40:35;101910.66;;;26.56;70.28
58947;BME280;44724;52.332;4.978;2022-07-30T11:43:24;101919.47;;;26.31;70.22
58947;BME280;44724;52.332;4.978;2022-07-30T11:46:08;101913.31;;;26.10;73.09
58947;BME280;44724;52.332;4.978;2022-07-30T11:48:35;101920.66;;;26.30;75.18
58947;BME280;44724;52.332;4.978;2022-07-30T11:51:01;101914.16;;;26.49;74.25
58947;BME280;44724;52.332;4.978;2022-07-30T11:53:27;101912.28;;;26.37;75.26
58947;BME280;44724;52.332;4.978;2022-07-30T11:55:55;101916.00;;;26.42;75.18
58947;BME280;44724;52.332;4.978;2022-07-30T11:58:23;101909.97;;;26.43;75.08
58947;BME280;44724;52.332;4.978;2022-07-30T12:00:49;101912.72;;;26.59;74.89
58947;BME280;44724;52.332;4.978;2022-07-30T12:03:17;101919.53;;;26.54;74.72
58947;BME280;44724;52.332;4.978;2022-07-30T12:05:44;101905.28;;;26.51;75.13
58947;BME280;44724;52.332;4.978;2022-07-30T12:08:11;101919.91;;;26.33;75.73
58947;BME280;44724;52.332;4.978;2022-07-30T12:10:37;101923.63;;;26.18;76.50
58947;BME280;44724;52.332;4.978;2022-07-30T12:13:15;101925.22;;;26.35;77.80
58947;BME280;44724;52.332;4.978;2022-07-30T12:15:42;101924.22;;;26.27;76.43
58947;BME280;44724;52.332;4.978;2022-07-30T12:18:09;101919.53;;;26.15;72.75
58947;BME280;44724;52.332;4.978;2022-07-30T12:20:39;101927.31;;;26.03;75.51
58947;BME280;44724;52.332;4.978;2022-07-30T12:23:12;101926.66;;;26.09;75.07
58947;BME280;44724;52.332;4.978;2022-07-30T12:25:41;101931.34;;;26.02;77.81
58947;BME280;44724;52.332;4.978;2022-07-30T12:28:08;101928.06;;;25.84;78.87
58947;BME280;44724;52.332;4.978;2022-07-30T12:30:38;101928.16;;;25.87;80.44
58947;BME280;44724;52.332;4.978;2022-07-30T12:33:07;101924.88;;;25.85;81.46
58947;BME280;44724;52.332;4.978;2022-07-30T12:35:48;101929.91;;;25.60;82.24
58947;BME280;44724;52.332;4.978;2022-07-30T12:38:19;101928.28;;;25.59;94.96
58947;BME280;44724;52.332;4.978;2022-07-30T12:41:02;101934.22;;;25.54;93.92
58947;BME280;44724;52.332;4.978;2022-07-30T12:43:53;101931.84;;;25.40;93.08
58947;BME280;44724;52.332;4.978;2022-07-30T12:46:24;101920.50;;;25.40;91.71
58947;BME280;44724;52.332;4.978;2022-07-30T12:48:55;101930.22;;;25.39;87.16
58947;BME280;44724;52.332;4.978;2022-07-30T12:51:25;101924.19;;;25.25;85.15
58947;BME280;44724;52.332;4.978;2022-07-30T12:53:53;101931.13;;;25.43;87.11
58947;BME280;44724;52.332;4.978;2022-07-30T12:56:24;101926.28;;;25.43;87.82
58947;BME280;44724;52.332;4.978;2022-07-30T12:58:50;101928.19;;;25.55;82.83
58947;BME280;44724;52.332;4.978;2022-07-30T13:01:16;101927.66;;;25.66;84.81
58947;BME280;44724;52.332;4.978;2022-07-30T13:03:42;101930.22;;;25.55;83.35
58947;BME280;44724;52.332;4.978;2022-07-30T13:06:19;101922.59;;;25.75;81.13
58947;BME280;44724;52.332;4.978;2022-07-30T13:08:49;101918.38;;;25.69;82.67
58947;BME280;44724;52.332;4.978;2022-07-30T13:11:16;101914.63;;;25.80;84.24
58947;BME280;44724;52.332;4.978;2022-07-30T13:13:42;101922.78;;;25.82;82.21
58947;BME280;44724;52.332;4.978;2022-07-30T13:16:07;101922.38;;;26.15;80.86
58947;BME280;44724;52.332;4.978;2022-07-30T13:18:34;101921.31;;;26.24;79.39
58947;BME280;44724;52.332;4.978;2022-07-30T13:21:01;101917.84;;;25.95;80.89
58947;BME280;44724;52.332;4.978;2022-07-30T13:23:27;101914.81;;;25.88;78.43
58947;BME280;44724;52.332;4.978;2022-07-30T13:25:54;101909.31;;;25.79;81.57
58947;BME280;44724;52.332;4.978;2022-07-30T13:28:19;101912.91;;;25.60;79.44
58947;BME280;44724;52.332;4.978;2022-07-30T13:30:45;101917.88;;;25.47;80.44
58947;BME280;44724;52.332;4.978;2022-07-30T13:33:11;101912.38;;;25.38;81.87
58947;BME280;44724;52.332;4.978;2022-07-30T13:35:37;101916.75;;;25.20;83.15
58947;BME280;44724;52.332;4.978;2022-07-30T13:38:03;101918.66;;;25.16;84.68